Latest Weather Observations for Paraburdoo

IDW60801

Issued at 4:35 pm WST Sunday 20 April 2014 (issued every 30 minutes, with the page automatically refreshed every 10 minutes)

About weather observations | Map of weather stations | Latest weather observations for WA | Other Formats
Station Details ID: 007185 Name: PARABURDOO AERO Lat: -23.17 Lon: 117.75 Height: 423.7 m
Data from the previous 72 hours. | See also: Recent months at Paraburdoo
Date/Time
WST
Temp
°C
App
Temp
°C
Dew
Point
Rel
Hum
%
Delta-T
°C
Wind Press
QNH
hPa
Press
MSL
hPa
Rain
since 9 am
mm
Dir
 
Spd
km/h
Gust
km/h
Spd
kts
Gust
kts
20/04:30pm 34.5 30.6 -1.5 10 17.6 SSW 9 26 5 14 1011.6 - 0.0
20/04:00pm 34.4 29.3 -1.6 10 17.6 WSW 15 28 8 15 1011.6 - 0.0
20/03:30pm 34.6 30.3 -1.4 10 17.7 WSW 11 20 6 11 1011.4 - 0.0
20/03:00pm 35.4 30.5 -0.8 10 18.0 NW 15 24 8 13 1011.6 1008.7 0.0
20/02:30pm 34.7 30.8 -1.4 10 17.7 N 9 22 5 12 1011.8 - 0.0
20/02:00pm 35.2 30.6 -1.0 10 18.0 N 13 26 7 14 1011.9 - 0.0
20/01:30pm 34.2 29.3 -0.4 11 17.2 WSW 15 26 8 14 1012.0 - 0.0
20/01:00pm 34.3 28.6 -0.4 11 17.3 WSW 19 28 10 15 1012.5 - 0.0
20/12:30pm 33.8 28.9 -0.7 11 17.0 WNW 15 26 8 14 1013.0 - 0.0
20/12:00pm 32.4 28.2 -0.6 12 16.2 WSW 11 17 6 9 1013.5 1010.7 0.0
20/11:30am 31.5 27.5 0.8 14 15.3 SW 11 17 6 9 1014.2 - 0.0
20/11:00am 30.9 26.8 2.2 16 14.6 WSW 13 19 7 10 1014.6 - 0.0
20/10:30am 30.4 26.6 1.8 16 14.4 W 11 15 6 8 1014.9 - 0.0
20/10:00am 29.5 26.0 3.5 19 13.4 W 11 15 6 8 1015.2 - 0.0
20/09:30am 28.6 25.6 4.2 21 12.7 W 9 13 5 7 1015.3 - 0.0
20/09:00am 27.7 26.3 5.3 24 11.8 WNW 2 6 1 3 1015.4 1012.6 0.0
20/08:30am 26.7 24.9 5.6 26 11.1 NE 4 9 2 5 1015.4 - 0.0
20/08:00am 24.8 22.4 5.1 28 10.2 ENE 7 9 4 5 1015.3 - 0.0
20/07:30am 21.8 19.2 4.4 32 8.7 ENE 7 9 4 5 1015.2 - 0.0
20/07:00am 19.0 15.1 3.2 35 7.6 NE 13 13 7 7 1014.9 - 0.0
20/06:30am 17.9 14.6 2.6 36 7.2 ENE 9 13 5 7 1014.7 - 0.0
20/06:00am 17.7 14.0 2.1 35 7.2 NE 11 13 6 7 1014.5 1011.7 0.0
20/05:30am 17.4 14.4 1.8 35 7.2 E 7 7 4 4 1014.4 - 0.0
20/05:00am 17.8 13.9 0.9 32 7.6 E 11 13 6 7 1014.1 - 0.0
20/04:30am 18.5 14.2 1.1 31 7.9 ENE 13 13 7 7 1013.9 - 0.0
20/04:00am 18.2 14.6 0.4 30 8.0 ENE 9 11 5 6 1013.6 - 0.0
20/03:30am 19.1 15.1 0.2 28 8.5 NE 11 13 6 7 1013.8 - 0.0
20/03:00am 19.8 15.8 0.3 27 8.9 ENE 11 13 6 7 1013.8 1010.9 0.0
20/02:30am 20.1 16.9 0.5 27 9.0 E 7 9 4 5 1013.9 - 0.0
20/02:00am 20.1 16.1 0.5 27 9.0 ESE 11 13 6 7 1013.9 - 0.0
20/01:30am 20.4 17.3 0.3 26 9.2 WNW 6 7 3 4 1014.0 - 0.0
20/01:00am 21.7 17.7 0.3 24 9.9 WNW 11 20 6 11 1014.2 - 0.0
20/12:30am 21.9 18.8 0.4 24 9.9 NE 6 9 3 5 1013.9 - 0.0
20/12:00am 22.1 18.4 0.0 23 10.2 NE 9 11 5 6 1013.9 1011.0 0.0
 
Date/Time
WST
Temp
°C
App
Temp
°C
Dew
Point
Rel
Hum
%
Delta-T
°C
Wind Press
QNH
hPa
Press
MSL
hPa
Rain
since 9 am
mm
Dir
 
Spd
km/h
Gust
km/h
Spd
kts
Gust
kts
19/11:30pm 21.9 18.2 -0.1 23 10.1 NE 9 13 5 7 1014.0 - 0.0
19/11:00pm 22.3 18.6 0.2 23 10.2 NE 9 11 5 6 1014.3 - 0.0
19/10:30pm 22.7 20.7 -0.1 22 10.5 CALM 0 0 0 0 1014.5 - 0.0
19/10:00pm 26.1 23.6 -0.8 17 12.6 N 2 6 1 3 1014.5 - 0.0
19/09:30pm 24.6 20.5 -0.5 19 11.7 NW 11 15 6 8 1014.6 - 0.0
19/09:00pm 25.3 22.1 -0.7 18 12.1 NNE 6 9 3 5 1014.5 1011.7 0.0
19/08:30pm 24.7 21.2 -1.2 18 11.9 ESE 7 9 4 5 1014.3 - 0.0
19/08:00pm 25.8 22.3 -1.1 17 12.5 S 7 9 4 5 1014.1 - 0.0
19/07:30pm 27.2 25.0 -1.7 15 13.4 WSW 0 9 0 5 1013.8 - 0.0
19/07:00pm 28.3 26.2 -0.8 15 13.8 WSW 0 0 0 0 1013.5 - 0.0
19/06:30pm 29.8 27.6 -1.5 13 14.8 CALM 0 0 0 0 1013.3 - 0.0
19/06:00pm 32.2 29.2 -2.0 11 16.4 W 4 6 2 3 1013.1 1010.3 0.0
19/05:30pm 33.6 30.2 -2.2 10 17.2 WNW 6 11 3 6 1012.9 - 0.0
19/05:00pm 34.3 29.8 -3.1 9 17.8 N 11 17 6 9 1012.7 - 0.0
19/04:30pm 34.9 31.8 -2.6 9 18.1 SW 4 7 2 4 1012.7 - 0.0
19/04:00pm 34.7 30.6 -2.8 9 18.0 SSW 9 15 5 8 1012.7 - 0.0
19/03:30pm 35.1 30.3 -2.5 9 18.2 W 13 19 7 10 1012.8 - 0.0
19/03:00pm 35.8 31.7 -0.5 10 18.2 WSW 11 22 6 12 1012.8 1010.0 0.0
19/02:30pm 34.7 29.7 -1.4 10 17.7 SSW 15 26 8 14 1012.9 - 0.0
19/02:00pm 35.6 30.7 -0.7 10 18.1 W 15 22 8 12 1013.2 - 0.0
19/01:30pm 35.2 31.0 -1.0 10 18.0 NW 11 19 6 10 1013.6 - 0.0
19/01:00pm 34.2 31.0 -0.4 11 17.2 SSE 6 11 3 6 1014.2 - 0.0
19/12:30pm 34.0 29.8 -0.6 11 17.1 W 11 19 6 10 1014.8 - 0.0
19/12:00pm 32.9 29.2 -0.2 12 16.4 S 9 17 5 9 1015.4 1012.6 0.0
19/11:30am 34.0 30.0 0.6 12 16.9 NW 11 19 6 10 1015.8 - 0.0
19/11:00am 33.0 29.1 0.9 13 16.2 NE 11 17 6 9 1016.4 - 0.0
19/10:30am 32.2 26.8 1.3 14 15.6 NNE 19 20 10 11 1016.8 - 0.0
19/10:00am 31.4 27.2 1.7 15 15.0 ENE 13 19 7 10 1017.3 - 0.0
19/09:30am 30.3 26.4 3.4 18 13.9 ENE 13 19 7 10 1017.6 - 0.0
19/09:00am 28.5 24.6 3.4 20 12.8 NE 13 17 7 9 1017.8 1015.0 0.0
19/08:30am 27.1 22.7 2.9 21 12.2 NE 15 20 8 11 1017.8 - 0.0
19/08:00am 25.1 21.0 2.5 23 11.1 NE 13 17 7 9 1017.7 - 0.0
19/07:30am 23.6 19.1 1.9 24 10.5 NE 15 17 8 9 1017.5 - 0.0
19/07:00am 20.9 16.4 2.2 29 8.9 NE 15 15 8 8 1017.3 - 0.0
19/06:30am 19.3 15.1 1.8 31 8.2 NE 13 17 7 9 1017.1 - 0.0
19/06:00am 19.5 15.3 1.9 31 8.2 NE 13 15 7 8 1016.8 1014.0 0.0
19/05:30am 19.5 15.4 2.4 32 8.1 ENE 13 15 7 8 1016.8 - 0.0
19/05:00am 18.5 14.7 1.9 33 7.7 ENE 11 15 6 8 1016.9 - 0.0
19/04:30am 18.5 15.0 1.5 32 7.8 E 9 13 5 7 1016.9 - 0.0
19/04:00am 19.2 14.9 1.2 30 8.3 E 13 13 7 7 1016.8 - 0.0
19/03:30am 19.4 15.8 0.4 28 8.6 NE 9 13 5 7 1016.8 - 0.0
19/03:00am 20.4 16.8 0.8 27 9.0 NE 9 11 5 6 1016.9 1014.1 0.0
19/02:30am 21.0 18.1 1.3 27 9.2 ENE 6 11 3 6 1017.1 - 0.0
19/02:00am 22.2 19.1 1.3 25 9.9 SW 7 24 4 13 1017.0 - 0.0
19/01:30am 22.9 18.7 1.8 25 10.1 NE 13 15 7 8 1016.9 - 0.0
19/01:00am 21.2 16.8 0.4 25 9.6 NE 13 15 7 8 1016.9 - 0.0
19/12:30am 22.5 18.6 0.9 24 10.1 NE 11 13 6 7 1017.2 - 0.0
19/12:00am 23.2 19.6 0.9 23 10.5 ENE 9 13 5 7 1017.3 1014.5 0.0
 
Date/Time
WST
Temp
°C
App
Temp
°C
Dew
Point
Rel
Hum
%
Delta-T
°C
Wind Press
QNH
hPa
Press
MSL
hPa
Rain
since 9 am
mm
Dir
 
Spd
km/h
Gust
km/h
Spd
kts
Gust
kts
18/11:30pm 23.2 19.6 0.3 22 10.7 ENE 9 9 5 5 1017.3 - 0.0
18/11:00pm 24.2 20.9 -0.2 20 11.4 NE 7 11 4 6 1017.5 - 0.0
18/10:30pm 25.6 20.3 -0.5 18 12.2 NNE 17 20 9 11 1017.6 - 0.0
18/10:00pm 25.6 21.1 -0.5 18 12.2 NE 13 15 7 8 1017.6 - 0.0
18/09:30pm 26.2 21.6 -0.8 17 12.6 ENE 13 15 7 8 1017.6 - 0.0
18/09:00pm 26.0 22.6 -0.9 17 12.5 NE 7 13 4 7 1017.5 1014.7 0.0
18/08:30pm 26.0 22.2 -0.9 17 12.5 ENE 9 11 5 6 1017.2 - 0.0
18/08:00pm 26.5 22.6 -1.3 16 12.9 E 9 11 5 6 1017.0 - 0.0
18/07:30pm 27.4 23.5 -1.5 15 13.5 NE 9 11 5 6 1016.6 - 0.0
18/07:00pm 28.9 24.3 -1.2 14 14.3 ENE 13 15 7 8 1016.3 - 0.0
18/06:30pm 30.4 26.4 -2.2 12 15.3 NE 9 11 5 6 1015.9 - 0.0
18/06:00pm 32.6 27.8 -2.9 10 16.8 NE 13 19 7 10 1015.6 1012.8 0.0
18/05:30pm 33.7 29.3 -2.1 10 17.3 ENE 11 17 6 9 1015.3 - 0.0
18/05:00pm 34.3 30.6 -3.1 9 17.8 E 7 11 4 6 1015.1 - 0.0
18/04:30pm 34.9 30.9 -2.6 9 18.1 NNE 9 19 5 10 1015.0 - 0.0
18/04:00pm 35.3 30.5 -2.3 9 18.3 NNE 13 17 7 9 1014.9 - 0.0
18/03:30pm 35.1 30.1 -1.1 10 17.9 E 15 20 8 11 1014.9 - 0.0
18/03:00pm 34.6 30.3 -1.4 10 17.7 ENE 11 19 6 10 1015.0 1012.2 0.0
18/02:30pm 35.4 29.9 -2.3 9 18.3 NNE 17 26 9 14 1015.1 - 0.0
18/02:00pm 35.5 29.6 -2.2 9 18.4 NE 19 26 10 14 1015.3 - 0.0
18/01:30pm 34.4 29.0 -1.6 10 17.6 E 17 26 9 14 1015.5 - 0.0
18/01:00pm 34.0 29.3 -1.9 10 17.4 NNE 13 24 7 13 1015.8 - 0.0
18/12:30pm 34.9 29.9 -1.2 10 17.8 ENE 15 22 8 12 1016.5 - 0.0
18/12:00pm 33.7 27.8 -2.1 10 17.2 NE 19 32 10 17 1017.0 1014.2 0.0
18/11:30am 33.1 26.6 -2.6 10 17.0 ENE 22 39 12 21 1017.3 - 0.0
18/11:00am 32.5 26.3 -3.0 10 16.7 NNE 20 37 11 20 1017.6 - 0.0
18/10:30am 32.0 25.0 -3.4 10 16.5 NE 24 33 13 18 1017.9 - 0.0
18/10:00am 31.3 23.3 -2.6 11 15.9 NE 30 37 16 20 1018.1 - 0.0
18/09:30am 30.8 25.5 -0.8 13 15.3 ENE 17 30 9 16 1018.3 - 0.0
18/09:00am 29.3 23.1 0.0 15 14.2 ENE 22 28 12 15 1018.5 1015.8 0.0
18/08:30am 27.8 22.1 0.5 17 13.2 ENE 20 26 11 14 1018.5 - 0.0
18/08:00am 26.2 22.2 0.8 19 12.2 ENE 11 17 6 9 1018.4 - 0.0
18/07:30am 22.7 19.3 1.7 25 10.0 E 9 11 5 6 1018.3 - 0.0
18/07:00am 19.7 17.4 0.7 28 8.7 ENE 2 6 1 3 1018.0 - 0.0
18/06:30am 18.3 15.2 0.4 30 8.0 ENE 6 7 3 4 1017.8 - 0.0
18/06:00am 18.0 14.3 -0.3 29 8.1 E 9 11 5 6 1017.7 1014.9 0.0
18/05:30am 19.4 15.3 -0.1 27 8.8 ENE 11 13 6 7 1017.6 - 0.0
18/05:00am 20.3 15.5 0.2 26 9.1 E 15 19 8 10 1017.4 - 0.0
18/04:30am 20.8 15.6 0.1 25 9.4 ENE 17 20 9 11 1017.3 - 0.0
18/04:00am 21.4 16.2 0.0 24 9.8 ENE 17 20 9 11 1017.3 - 0.0
18/03:30am 20.7 15.5 0.0 25 9.4 ENE 17 19 9 10 1017.5 - 0.0
18/03:00am 21.0 15.8 0.2 25 9.5 ENE 17 20 9 11 1017.4 1014.6 0.0
18/02:30am 21.1 15.8 -0.8 23 9.8 ENE 17 19 9 10 1017.3 - 0.0
18/02:00am 21.3 16.0 -0.6 23 9.9 NE 17 20 9 11 1017.2 - 0.0
18/01:30am 20.2 15.6 -1.0 24 9.4 NE 13 15 7 8 1017.5 - 0.0
18/01:00am 20.2 15.7 -0.4 25 9.3 ENE 13 17 7 9 1017.7 - 0.0
18/12:30am 20.5 16.2 -1.3 23 9.6 NNE 11 13 6 7 1017.8 - 0.0
18/12:00am 21.8 18.0 -0.8 22 10.2 NNE 9 11 5 6 1018.0 1015.2 0.0
 
Date/Time
WST
Temp
°C
App
Temp
°C
Dew
Point
Rel
Hum
%
Delta-T
°C
Wind Press
QNH
hPa
Press
MSL
hPa
Rain
since 9 am
mm
Dir
 
Spd
km/h
Gust
km/h
Spd
kts
Gust
kts
17/11:30pm 21.1 18.9 -1.4 22 10.0 CALM 0 0 0 0 1018.1 - 0.0
17/11:00pm 22.1 18.2 -1.2 21 10.5 NE 9 11 5 6 1018.1 - 0.0
17/10:30pm 23.1 18.4 -1.8 19 11.1 NE 13 15 7 8 1017.9 - 0.0
17/10:00pm 23.4 19.0 -2.2 18 11.4 NE 11 13 6 7 1017.9 - 0.0
17/09:30pm 23.7 19.4 -2.0 18 11.5 NE 11 13 6 7 1017.9 - 0.0
17/09:00pm 24.4 20.4 -2.2 17 11.9 NE 9 11 5 6 1017.8 1015.0 0.0
17/08:30pm 24.2 19.7 -3.2 16 12.1 NE 11 11 6 6 1017.6 - 0.0
17/08:00pm 25.1 20.6 -3.3 15 12.6 ENE 11 15 6 8 1017.3 - 0.0
17/07:30pm 27.1 23.3 -3.7 13 13.8 E 7 9 4 5 1017.1 - 0.0
17/07:00pm 27.9 23.3 -4.1 12 14.3 ESE 11 13 6 7 1016.7 - 0.0
17/06:30pm 29.4 25.2 -4.1 11 15.1 SE 9 11 5 6 1016.4 - 0.0
17/06:00pm 31.5 26.4 -5.2 9 16.5 ESE 13 19 7 10 1015.9 1013.1 0.0
17/05:30pm 33.2 28.6 -3.9 9 17.3 ESE 11 15 6 8 1015.6 - 0.0
17/05:00pm 34.1 30.0 -3.2 9 17.7 ESE 9 13 5 7 1015.2 - 0.0

Other Formats:

Comma delimited format used in spreadsheet applications
http://www.bom.gov.au/fwo/IDW60801/IDW60801.94316.axf

JavaScript Object Notation format (JSON) in row-major order
http://www.bom.gov.au/fwo/IDW60801/IDW60801.94316.json